Atlanta, Georgia
Traffic Map
Current Weather Conditions
Atlanta, Georgia
Scattered Clouds
Scattered Clouds
33°
Feels Like: 33°
Wind Chill: 33° Ceiling: Unl
Heat Index: 33° Visibility: 10mi
Dew Point: 17° Wind: 6mph
Humidity: 38% Direction: 30° (NNE)
Pressure: 30.03in Gusts: 0mph
Raw Report DataKATL 242152Z 03005KT 10SM FEW070 SCT110 SCT250 33/17 A3003 RMK AO2 SLP158 T03280167
Traffic Incident Summary
Active as of:
Severity:
Category:
InformationThere was an issue retrieving the traffic information for this location. Please try a different location or try again shortly.
Advertisements
Track Severe Weather on mobile